Time;durP1;ratioP1;P1;durP2;ratioP2;P2;SDS_P1;SDS_P2;PMS_P1;PMS_P2;Temp;Humidity;BMP_temperature;BMP_pressure;BME280_temperature;BME280_humidity;BME280_pressure;Samples;Min_cycle;Max_cycle;Signal;HPM_P1;HPM_P2
2021/12/18 00:00:49;;;;;;;16.80;11.97;;;10.70;99.90;;;;;;5052540;28;20620;-69
2021/12/18 00:03:14;;;;;;;17.17;11.07;;;10.60;99.90;;;;;;5050135;28;20422;-69
2021/12/18 00:05:41;;;;;;;16.37;11.57;;;10.70;99.90;;;;;;5050845;28;20905;-69
2021/12/18 00:08:06;;;;;;;14.83;10.77;;;10.60;99.90;;;;;;5065043;28;20473;-70
2021/12/18 00:10:33;;;;;;;19.93;11.40;;;10.70;99.90;;;;;;5072079;28;20549;-69
2021/12/18 00:13:00;;;;;;;15.93;11.40;;;10.70;99.90;;;;;;5054096;28;20187;-69
2021/12/18 00:15:26;;;;;;;17.07;11.00;;;10.60;99.90;;;;;;5070874;28;20487;-69
2021/12/18 00:17:53;;;;;;;16.27;11.90;;;10.70;99.90;;;;;;5071588;28;20513;-69
2021/12/18 00:20:19;;;;;;;16.00;10.70;;;10.80;99.90;;;;;;5071535;28;20421;-69
2021/12/18 00:22:46;;;;;;;18.20;11.10;;;10.70;99.90;;;;;;5070212;28;20430;-69
2021/12/18 00:25:12;;;;;;;16.07;11.20;;;10.60;99.90;;;;;;5071163;28;20412;-69
2021/12/18 00:27:39;;;;;;;16.40;10.97;;;10.40;99.90;;;;;;5070670;28;20422;-69
2021/12/18 00:30:06;;;;;;;23.10;11.93;;;10.40;99.90;;;;;;5071382;28;20422;-81
2021/12/18 00:32:32;;;;;;;19.80;11.47;;;10.40;99.90;;;;;;5069027;28;21127;-69
2021/12/18 00:34:58;;;;;;;16.87;12.13;;;10.30;99.90;;;;;;5051796;28;20513;-69
2021/12/18 00:37:24;;;;;;;15.17;11.53;;;10.30;99.90;;;;;;5049800;28;20196;-69
2021/12/18 00:39:56;;;;;;;16.57;10.70;;;10.10;99.90;;;;;;5059060;28;20203;-69
2021/12/18 00:42:39;;;;;;;17.77;11.70;;;10.00;99.90;;;;;;5071017;28;20164;-69
2021/12/18 00:45:11;;;;;;;19.63;11.87;;;10.10;99.90;;;;;;5090144;28;20794;-82
2021/12/18 00:47:38;;;;;;;19.30;13.17;;;10.00;99.90;;;;;;5075446;28;20441;-69
2021/12/18 00:50:06;;;;;;;18.17;12.90;;;10.10;99.90;;;;;;5072312;28;20433;-75
2021/12/18 00:52:32;;;;;;;23.03;13.27;;;10.30;99.90;;;;;;5074124;28;20481;-68
2021/12/18 00:54:58;;;;;;;19.70;12.37;;;10.30;99.90;;;;;;5075248;28;20498;-67
2021/12/18 00:57:24;;;;;;;17.33;12.87;;;10.40;99.90;;;;;;5074935;28;20414;-68
2021/12/18 00:59:52;;;;;;;22.60;12.33;;;10.60;99.90;;;;;;5075572;28;20436;-68
2021/12/18 01:02:18;;;;;;;19.03;11.30;;;10.60;99.90;;;;;;5073115;28;20212;-68
2021/12/18 01:04:44;;;;;;;19.23;12.70;;;10.50;99.90;;;;;;5075272;28;20459;-68
2021/12/18 01:07:10;;;;;;;18.83;12.10;;;10.50;99.90;;;;;;5073096;28;20239;-69
2021/12/18 01:12:16;;;;;;;19.30;11.27;;;10.50;99.90;;;;;;5074073;28;20669;-68
2021/12/18 01:14:55;;;;;;;17.87;11.30;;;10.40;99.90;;;;;;5075272;28;20470;-68
2021/12/18 01:25:09;;;;;;;21.47;12.80;;;10.40;99.90;;;;;;5074719;28;20418;-76
2021/12/18 01:27:36;;;;;;;19.93;12.60;;;10.50;99.90;;;;;;5075292;28;20517;-68
2021/12/18 01:30:06;;;;;;;20.53;12.83;;;10.40;99.90;;;;;;5074840;28;20451;-68
2021/12/18 01:32:32;;;;;;;19.10;12.20;;;10.50;99.90;;;;;;5074074;28;20450;-68
2021/12/18 01:34:58;;;;;;;21.33;12.33;;;10.60;99.90;;;;;;5074550;28;20422;-68
2021/12/18 01:37:24;;;;;;;19.90;12.57;;;10.60;99.90;;;;;;5073365;28;20191;-68
2021/12/18 01:39:52;;;;;;;21.93;12.93;;;10.70;99.90;;;;;;5074454;28;20184;-68
2021/12/18 01:52:45;;;;;;;23.33;13.37;;;10.90;99.90;;;;;;5074232;28;20892;-68
2021/12/18 01:55:11;;;;;;;19.83;13.80;;;10.90;99.90;;;;;;5073185;28;20518;-76
2021/12/18 01:57:38;;;;;;;20.30;13.30;;;10.90;99.90;;;;;;5074060;28;20270;-68
2021/12/18 02:00:34;;;;;;;20.13;13.10;;;10.90;99.90;;;;;;5074289;28;20418;-68
2021/12/18 02:03:01;;;;;;;20.43;12.63;;;11.00;99.90;;;;;;5072144;28;20440;-68
2021/12/18 02:05:26;;;;;;;20.60;13.60;;;11.00;99.90;;;;;;5073091;28;20415;-69
2021/12/18 02:07:53;;;;;;;21.10;13.03;;;11.00;99.90;;;;;;5074419;28;20424;-68
2021/12/18 02:10:22;;;;;;;23.03;13.87;;;11.10;99.90;;;;;;5073242;28;20189;-69
2021/12/18 02:13:02;;;;;;;20.90;13.10;;;11.00;99.90;;;;;;5073695;28;20480;-68
2021/12/18 02:21:06;;;;;;;19.73;12.97;;;11.10;99.90;;;;;;5073864;28;20400;-68
2021/12/18 02:23:33;;;;;;;21.00;12.93;;;11.00;99.90;;;;;;5071957;28;20433;-68
2021/12/18 02:25:59;;;;;;;24.63;14.17;;;11.00;99.90;;;;;;5073228;28;20411;-68
2021/12/18 02:28:26;;;;;;;22.00;13.67;;;11.10;99.90;;;;;;5072964;28;20438;-69
2021/12/18 02:30:55;;;;;;;23.70;13.53;;;11.10;99.90;;;;;;5072363;28;20800;-68
2021/12/18 02:33:21;;;;;;;22.73;13.07;;;11.10;99.90;;;;;;5072779;28;20411;-68
2021/12/18 02:35:49;;;;;;;27.20;14.43;;;11.10;99.90;;;;;;5073546;28;20411;-68
2021/12/18 02:38:31;;;;;;;23.27;13.97;;;11.10;99.90;;;;;;5072429;28;20505;-70
2021/12/18 02:41:13;;;;;;;24.40;15.00;;;11.10;99.90;;;;;;5073021;28;20455;-68
2021/12/18 02:43:41;;;;;;;24.93;14.80;;;11.20;99.90;;;;;;5053207;28;20424;-68
2021/12/18 02:46:09;;;;;;;21.43;12.77;;;11.10;99.90;;;;;;5068476;28;20461;-68
2021/12/18 02:48:38;;;;;;;17.07;11.90;;;11.10;99.90;;;;;;5055570;28;20438;-68
2021/12/18 02:51:06;;;;;;;26.43;14.27;;;11.10;99.90;;;;;;5073219;28;20453;-68
2021/12/18 02:53:33;;;;;;;23.70;13.50;;;11.10;99.90;;;;;;5072118;28;20423;-68
2021/12/18 02:56:03;;;;;;;24.17;14.80;;;11.20;99.90;;;;;;5071835;28;20411;-69
2021/12/18 02:58:29;;;;;;;21.17;13.50;;;11.10;99.90;;;;;;5052141;28;20511;-68
2021/12/18 03:00:57;;;;;;;23.30;13.73;;;11.10;99.90;;;;;;5053043;28;20564;-68
2021/12/18 03:03:27;;;;;;;23.07;13.23;;;11.00;99.90;;;;;;5050931;28;20433;-68
2021/12/18 03:06:09;;;;;;;24.50;12.97;;;11.00;99.90;;;;;;5053010;28;20425;-67
2021/12/18 03:08:46;;;;;;;22.57;13.70;;;11.00;99.90;;;;;;5052178;28;20404;-68
2021/12/18 03:25:01;;;;;;;19.80;13.80;;;11.10;99.90;;;;;;5052820;28;20485;-68
2021/12/18 03:27:28;;;;;;;21.50;13.60;;;11.00;99.90;;;;;;5062504;28;20418;-68
2021/12/18 03:29:55;;;;;;;18.50;11.70;;;11.00;99.90;;;;;;5072611;28;20422;-68
2021/12/18 03:32:21;;;;;;;19.23;11.87;;;10.90;99.90;;;;;;5071724;28;20506;-69
2021/12/18 03:34:47;;;;;;;20.87;12.10;;;10.80;99.90;;;;;;5072576;28;20418;-68
2021/12/18 03:37:13;;;;;;;19.60;12.57;;;10.80;99.90;;;;;;5072430;28;20421;-68
2021/12/18 03:39:39;;;;;;;19.20;11.93;;;10.90;99.90;;;;;;5071608;28;20280;-68
2021/12/18 03:42:06;;;;;;;21.63;13.13;;;10.90;99.90;;;;;;5071108;28;20493;-68
2021/12/18 03:44:33;;;;;;;20.43;12.50;;;11.00;99.90;;;;;;5070796;28;20878;-68
2021/12/18 03:46:59;;;;;;;20.73;11.73;;;10.90;99.90;;;;;;5072183;28;20887;-68
2021/12/18 03:49:24;;;;;;;16.77;9.77;;;11.00;99.90;;;;;;5071521;28;20451;-68
2021/12/18 03:51:50;;;;;;;16.27;10.67;;;10.90;99.90;;;;;;5071984;28;20973;-68
2021/12/18 03:54:16;;;;;;;20.90;11.90;;;10.90;99.90;;;;;;5071003;28;20268;-76
2021/12/18 03:56:42;;;;;;;19.80;12.80;;;11.00;99.90;;;;;;5071709;28;20237;-68
2021/12/18 03:59:07;;;;;;;20.33;12.87;;;11.00;99.90;;;;;;5072266;28;20612;-68
2021/12/18 04:01:33;;;;;;;17.10;11.77;;;11.00;99.90;;;;;;5070160;28;20183;-68
2021/12/18 04:03:59;;;;;;;18.33;11.50;;;11.00;99.90;;;;;;5072239;28;20176;-68
2021/12/18 04:06:25;;;;;;;16.97;9.63;;;11.00;99.90;;;;;;5070836;28;20188;-69
2021/12/18 04:08:51;;;;;;;15.07;10.60;;;11.00;99.90;;;;;;5070750;28;20175;-68
2021/12/18 04:11:16;;;;;;;17.20;10.80;;;10.90;99.90;;;;;;5071625;28;20457;-76
2021/12/18 04:13:45;;;;;;;16.60;10.97;;;10.90;99.90;;;;;;5071737;28;20185;-69
2021/12/18 04:16:12;;;;;;;15.50;10.60;;;10.80;99.90;;;;;;5070926;28;20583;-68
2021/12/18 04:18:37;;;;;;;18.10;11.40;;;10.60;99.90;;;;;;5071072;28;20403;-68
2021/12/18 04:21:04;;;;;;;18.00;10.93;;;10.60;99.90;;;;;;5070788;28;20819;-68
2021/12/18 04:23:29;;;;;;;18.40;11.23;;;10.40;99.90;;;;;;5071133;28;20510;-68
2021/12/18 04:25:56;;;;;;;18.37;11.73;;;10.40;99.90;;;;;;5074130;28;20408;-68
2021/12/18 04:28:22;;;;;;;21.30;11.23;;;10.20;99.90;;;;;;5074806;28;20268;-69
2021/12/18 04:30:48;;;;;;;20.57;11.87;;;10.00;99.90;;;;;;5076135;28;20449;-68
2021/12/18 04:33:14;;;;;;;20.30;11.83;;;9.80;99.90;;;;;;5075954;28;20514;-68
2021/12/18 04:35:39;;;;;;;20.17;11.23;;;9.90;99.90;;;;;;5075075;28;20490;-68
2021/12/18 04:38:05;;;;;;;17.87;11.10;;;9.90;99.90;;;;;;5075851;28;20656;-68
2021/12/18 04:40:31;;;;;;;20.70;12.50;;;9.90;99.90;;;;;;5075015;28;20219;-68
2021/12/18 04:42:57;;;;;;;22.33;12.60;;;10.00;99.90;;;;;;5075439;28;20605;-68
2021/12/18 04:45:23;;;;;;;17.73;11.20;;;10.20;99.90;;;;;;5074392;28;20917;-69
2021/12/18 04:47:49;;;;;;;20.40;11.10;;;10.10;99.90;;;;;;5075615;28;20217;-69
2021/12/18 04:50:15;;;;;;;20.73;11.03;;;10.20;99.90;;;;;;5073843;28;20854;-68
2021/12/18 04:52:41;;;;;;;19.40;11.77;;;10.40;99.90;;;;;;5073388;28;21088;-68
2021/12/18 04:55:07;;;;;;;15.87;10.97;;;10.30;99.90;;;;;;5057736;28;20172;-68
2021/12/18 04:57:32;;;;;;;19.53;10.60;;;10.40;99.90;;;;;;5073875;28;20216;-69
2021/12/18 04:59:58;;;;;;;14.93;10.50;;;10.50;99.90;;;;;;5074106;28;20827;-68
2021/12/18 05:02:35;;;;;;;20.20;10.97;;;10.60;99.90;;;;;;5074318;28;20185;-69
2021/12/18 05:05:00;;;;;;;16.83;10.27;;;10.60;99.90;;;;;;5075343;28;20419;-68
2021/12/18 05:07:27;;;;;;;14.70;9.80;;;10.70;99.90;;;;;;5073314;28;20405;-69
2021/12/18 05:09:53;;;;;;;17.70;11.13;;;10.80;99.90;;;;;;5075288;28;20182;-69
2021/12/18 05:12:19;;;;;;;17.40;10.77;;;10.80;99.90;;;;;;5074718;28;20462;-72
2021/12/18 05:14:45;;;;;;;16.00;11.20;;;10.80;99.90;;;;;;5074198;28;20176;-69
2021/12/18 05:17:11;;;;;;;14.87;9.50;;;10.80;99.90;;;;;;5075223;28;20928;-68
2021/12/18 05:19:37;;;;;;;19.63;11.30;;;10.90;99.90;;;;;;5074021;28;20423;-69
2021/12/18 05:22:04;;;;;;;18.50;11.47;;;10.90;99.90;;;;;;5074741;28;20177;-69
2021/12/18 05:24:30;;;;;;;18.10;11.40;;;10.90;99.90;;;;;;5074172;28;20219;-69
2021/12/18 05:26:55;;;;;;;15.30;10.17;;;10.90;99.90;;;;;;5074846;28;20922;-68
2021/12/18 05:29:21;;;;;;;13.50;9.03;;;10.90;99.90;;;;;;5073447;28;20697;-76
2021/12/18 05:31:47;;;;;;;17.87;9.83;;;10.90;99.90;;;;;;5074211;28;20304;-69
2021/12/18 05:34:21;;;;;;;12.53;8.80;;;10.90;99.90;;;;;;5074440;28;20651;-69
2021/12/18 05:39:25;;;;;;;14.70;9.90;;;10.90;99.90;;;;;;5074225;28;20421;-77
2021/12/18 05:41:51;;;;;;;14.67;9.27;;;10.80;99.90;;;;;;5074274;28;20833;-69
2021/12/18 05:44:19;;;;;;;13.60;9.70;;;10.80;99.90;;;;;;5074518;28;20918;-68
2021/12/18 05:46:45;;;;;;;10.87;8.63;;;10.60;99.90;;;;;;5073628;28;20429;-69
2021/12/18 05:49:11;;;;;;;13.33;8.83;;;10.60;99.90;;;;;;5074380;28;20442;-68
2021/12/18 05:51:37;;;;;;;14.23;8.97;;;10.60;99.90;;;;;;5073477;28;20463;-69
2021/12/18 05:54:03;;;;;;;12.40;8.37;;;10.70;99.90;;;;;;5074681;28;20218;-68
2021/12/18 05:56:29;;;;;;;14.07;9.33;;;10.70;99.90;;;;;;5073619;28;20425;-69
2021/12/18 05:58:55;;;;;;;11.83;8.10;;;10.80;99.90;;;;;;5073999;28;20460;-69
2021/12/18 06:01:21;;;;;;;11.57;8.17;;;10.80;99.90;;;;;;5074007;28;20177;-69
2021/12/18 06:03:47;;;;;;;13.67;8.23;;;10.80;99.90;;;;;;5072898;28;20467;-68
2021/12/18 06:06:13;;;;;;;11.80;7.23;;;10.90;99.90;;;;;;5072954;28;20640;-68
2021/12/18 06:08:42;;;;;;;10.87;7.60;;;10.90;99.90;;;;;;5073279;28;20415;-71
2021/12/18 06:11:13;;;;;;;10.37;7.40;;;10.90;99.90;;;;;;5073472;28;20466;-71
2021/12/18 06:13:43;;;;;;;9.33;7.50;;;10.80;99.90;;;;;;5073001;28;20464;-71
2021/12/18 06:16:09;;;;;;;12.33;8.50;;;10.90;99.90;;;;;;5073267;28;20790;-71
2021/12/18 06:18:44;;;;;;;10.20;7.67;;;10.90;99.90;;;;;;5071877;28;20423;-71
2021/12/18 06:21:13;;;;;;;13.57;9.00;;;10.80;99.90;;;;;;5073592;28;20419;-70
2021/12/18 06:23:44;;;;;;;8.80;7.10;;;10.90;99.90;;;;;;5072122;28;20428;-71
2021/12/18 06:26:09;;;;;;;11.37;7.30;;;10.90;99.90;;;;;;5073789;28;20391;-71
2021/12/18 06:28:35;;;;;;;14.13;7.63;;;10.90;99.90;;;;;;5071173;28;20765;-71
2021/12/18 06:31:01;;;;;;;14.03;8.03;;;11.00;99.90;;;;;;5072332;28;20600;-71
2021/12/18 06:33:28;;;;;;;14.60;9.10;;;10.90;99.90;;;;;;5071622;28;20171;-80
2021/12/18 06:35:55;;;;;;;15.97;8.87;;;10.90;99.90;;;;;;5072369;28;20427;-72
2021/12/18 06:38:20;;;;;;;13.53;8.30;;;10.90;99.90;;;;;;5072697;28;20442;-71
2021/12/18 06:40:46;;;;;;;13.77;9.60;;;10.90;99.90;;;;;;5071356;28;20494;-71
2021/12/18 06:43:12;;;;;;;14.87;8.73;;;11.10;99.90;;;;;;5072636;28;20933;-71
2021/12/18 06:45:38;;;;;;;14.00;8.63;;;11.00;99.90;;;;;;5071258;28;20311;-71
2021/12/18 06:48:04;;;;;;;11.53;7.30;;;11.10;99.90;;;;;;5072407;28;20426;-71
2021/12/18 06:50:32;;;;;;;11.43;8.23;;;11.00;99.90;;;;;;5071842;28;20180;-72
2021/12/18 06:52:58;;;;;;;13.27;7.77;;;11.00;99.90;;;;;;5073026;28;20816;-71
2021/12/18 06:55:25;;;;;;;11.57;7.60;;;11.00;99.90;;;;;;5072964;28;20904;-80
2021/12/18 06:57:51;;;;;;;13.57;8.87;;;11.00;99.90;;;;;;5072294;28;20430;-71
2021/12/18 07:00:18;;;;;;;11.80;7.83;;;11.10;99.90;;;;;;5073056;28;20954;-71
2021/12/18 07:02:44;;;;;;;9.93;7.07;;;11.10;99.90;;;;;;5071985;28;20171;-71
2021/12/18 07:05:11;;;;;;;12.23;7.20;;;11.10;99.90;;;;;;5072723;28;20411;-71
2021/12/18 07:07:37;;;;;;;11.27;6.00;;;11.10;99.90;;;;;;5072241;28;20435;-71
2021/12/18 07:10:04;;;;;;;7.87;6.13;;;11.10;99.90;;;;;;5072920;28;20415;-71
2021/12/18 07:12:30;;;;;;;9.90;6.20;;;11.10;99.90;;;;;;5070604;28;20466;-72
2021/12/18 07:14:56;;;;;;;7.60;5.80;;;11.10;99.90;;;;;;5071583;28;20911;-71
2021/12/18 07:17:22;;;;;;;8.57;5.80;;;11.10;99.90;;;;;;5072304;28;20243;-71
2021/12/18 07:19:47;;;;;;;10.10;6.60;;;11.10;99.90;;;;;;5071708;28;20310;-71
2021/12/18 07:22:13;;;;;;;8.30;6.07;;;11.20;99.90;;;;;;5070631;28;20238;-71
2021/12/18 07:24:39;;;;;;;7.60;6.13;;;11.10;99.90;;;;;;5070577;28;20540;-70
2021/12/18 07:27:04;;;;;;;10.00;6.53;;;11.10;99.90;;;;;;5071434;28;20180;-69
2021/12/18 07:29:30;;;;;;;7.87;5.93;;;11.20;99.90;;;;;;5071670;28;20175;-72
2021/12/18 07:31:56;;;;;;;11.33;6.13;;;11.10;99.90;;;;;;5071612;28;20212;-72
2021/12/18 07:34:22;;;;;;;8.90;5.97;;;11.10;99.90;;;;;;5072613;28;20182;-71
2021/12/18 07:36:47;;;;;;;10.03;7.20;;;11.10;99.90;;;;;;5070870;28;20734;-70
2021/12/18 07:39:14;;;;;;;8.93;5.80;;;11.10;99.90;;;;;;5072003;28;20212;-71
2021/12/18 07:41:40;;;;;;;8.60;5.83;;;11.10;99.90;;;;;;5071184;28;20907;-72
2021/12/18 07:44:06;;;;;;;10.07;6.63;;;11.10;99.90;;;;;;5071738;28;20422;-71
2021/12/18 07:46:34;;;;;;;12.03;6.50;;;11.10;99.90;;;;;;5070680;28;20847;-72
2021/12/18 07:48:59;;;;;;;9.30;6.57;;;11.10;99.90;;;;;;5072131;28;20415;-71
2021/12/18 07:51:26;;;;;;;10.30;7.23;;;11.10;99.90;;;;;;5070965;28;20450;-71
2021/12/18 07:53:51;;;;;;;7.93;6.10;;;11.10;99.90;;;;;;5070292;28;20501;-71
2021/12/18 07:56:19;;;;;;;9.27;7.38;;;11.10;99.90;;;;;;5070578;28;20442;-71
2021/12/18 07:58:45;;;;;;;9.97;6.80;;;11.10;99.90;;;;;;5071128;28;20181;-71
2021/12/18 08:01:10;;;;;;;10.57;7.00;;;11.20;99.90;;;;;;5070169;28;20406;-71
2021/12/18 08:03:36;;;;;;;8.13;7.13;;;11.10;99.90;;;;;;5069909;28;20417;-72
2021/12/18 08:06:02;;;;;;;11.40;7.43;;;11.10;99.90;;;;;;5071871;28;20265;-72
2021/12/18 08:08:28;;;;;;;10.07;7.67;;;11.10;99.90;;;;;;5068726;28;20176;-71
2021/12/18 08:10:54;;;;;;;9.53;7.40;;;11.10;99.90;;;;;;5068969;28;20456;-71
2021/12/18 08:13:20;;;;;;;9.30;7.50;;;11.10;99.90;;;;;;5071353;28;20192;-71
2021/12/18 08:15:46;;;;;;;8.43;6.80;;;11.20;99.90;;;;;;5071138;28;20427;-74
2021/12/18 08:18:11;;;;;;;9.73;7.53;;;11.20;99.90;;;;;;5071540;28;20169;-73
2021/12/18 08:20:38;;;;;;;9.67;7.87;;;11.50;99.90;;;;;;5070581;28;20214;-73
2021/12/18 08:23:09;;;;;;;9.00;7.50;;;11.50;99.90;;;;;;5070016;28;20235;-72
2021/12/18 08:25:36;;;;;;;8.40;7.00;;;11.60;99.90;;;;;;5070222;28;20455;-73
2021/12/18 08:28:03;;;;;;;10.07;9.03;;;11.80;99.90;;;;;;5071771;28;20961;-73
2021/12/18 08:30:31;;;;;;;11.03;8.40;;;12.10;99.90;;;;;;5072213;28;20403;-75
2021/12/18 08:33:00;;;;;;;7.70;6.90;;;12.60;99.90;;;;;;5065767;28;20415;-73
2021/12/18 08:35:27;;;;;;;8.30;7.33;;;13.00;99.90;;;;;;5061666;28;20422;-73
2021/12/18 08:37:54;;;;;;;8.53;7.67;;;13.40;99.90;;;;;;5070636;28;20401;-73
2021/12/18 08:40:21;;;;;;;10.33;7.43;;;13.80;99.90;;;;;;5070141;28;20898;-73
2021/12/18 08:42:47;;;;;;;8.57;6.87;;;14.10;99.90;;;;;;5070271;28;20544;-74
2021/12/18 08:45:13;;;;;;;9.53;6.70;;;14.30;99.90;;;;;;5070226;28;20550;-74
2021/12/18 08:47:39;;;;;;;7.63;6.60;;;14.50;99.90;;;;;;5070510;28;20566;-74
2021/12/18 08:50:07;;;;;;;8.87;6.63;;;14.70;99.90;;;;;;5071262;28;20425;-73
2021/12/18 08:52:33;;;;;;;7.60;6.17;;;14.90;99.90;;;;;;5070571;28;20462;-75
2021/12/18 08:54:59;;;;;;;7.70;6.43;;;15.10;99.70;;;;;;5071413;28;20424;-73
2021/12/18 08:57:26;;;;;;;8.23;6.47;;;15.30;99.10;;;;;;5071889;28;20416;-74
2021/12/18 08:59:52;;;;;;;7.67;6.57;;;15.40;98.80;;;;;;5069970;28;20480;-73
2021/12/18 09:02:18;;;;;;;7.50;6.77;;;15.50;98.60;;;;;;5071160;28;20437;-74
2021/12/18 09:04:43;;;;;;;7.83;6.90;;;15.60;98.10;;;;;;5070580;28;20183;-74
2021/12/18 09:07:10;;;;;;;7.77;6.60;;;15.70;97.70;;;;;;5070094;28;20430;-74
2021/12/18 09:09:36;;;;;;;8.03;7.23;;;15.70;97.50;;;;;;5070600;28;20428;-76
2021/12/18 09:12:02;;;;;;;9.40;7.33;;;15.80;97.30;;;;;;5072937;28;20454;-73
2021/12/18 09:14:27;;;;;;;8.47;7.57;;;15.90;97.00;;;;;;5073510;28;20776;-73
2021/12/18 09:16:53;;;;;;;8.60;7.43;;;16.00;96.80;;;;;;5074198;28;20413;-73
2021/12/18 09:19:20;;;;;;;9.80;7.00;;;16.00;96.60;;;;;;5074010;28;20184;-74
2021/12/18 09:21:46;;;;;;;9.60;7.90;;;16.10;96.30;;;;;;5074059;28;20183;-74
2021/12/18 09:24:12;;;;;;;8.37;7.27;;;16.10;96.10;;;;;;5073700;28;20498;-74
2021/12/18 09:26:38;;;;;;;8.17;7.27;;;16.10;95.90;;;;;;5072449;28;20187;-74
2021/12/18 09:29:04;;;;;;;10.33;7.40;;;16.10;95.60;;;;;;5073958;28;20424;-74
2021/12/18 09:31:29;;;;;;;8.57;7.63;;;16.20;95.50;;;;;;5074617;28;20211;-73
2021/12/18 09:33:55;;;;;;;9.23;7.80;;;16.10;95.40;;;;;;5073101;28;20484;-73
2021/12/18 09:36:21;;;;;;;10.93;7.40;;;16.10;95.50;;;;;;5073444;28;20183;-72
2021/12/18 09:38:47;;;;;;;11.43;8.70;;;15.70;95.00;;;;;;5073365;28;20201;-73
2021/12/18 09:41:12;;;;;;;11.63;8.40;;;15.40;95.40;;;;;;5072975;28;20638;-72
2021/12/18 09:43:39;;;;;;;9.33;7.90;;;15.10;96.00;;;;;;5072010;28;20178;-74
2021/12/18 09:46:11;;;;;;;12.80;9.60;;;14.80;96.70;;;;;;5073068;28;20316;-72
2021/12/18 09:48:39;;;;;;;7.93;7.13;;;14.50;97.40;;;;;;5074126;28;20810;-74
2021/12/18 09:51:11;;;;;;;10.33;7.43;;;14.20;98.00;;;;;;5074335;28;20549;-72
2021/12/18 09:53:37;;;;;;;13.77;8.40;;;13.90;98.70;;;;;;5073861;28;20399;-73
2021/12/18 09:56:04;;;;;;;10.90;7.80;;;13.60;99.50;;;;;;5074677;28;20411;-72
2021/12/18 09:58:30;;;;;;;10.50;7.03;;;13.40;99.90;;;;;;5073591;28;20403;-72
2021/12/18 10:00:56;;;;;;;9.67;7.00;;;13.30;99.90;;;;;;5074050;28;20415;-72
2021/12/18 10:03:46;;;;;;;7.33;6.30;;;13.10;99.90;;;;;;5074053;28;20452;-72
2021/12/18 10:06:36;;;;;;;8.43;7.03;;;12.90;99.90;;;;;;5068389;28;20405;-73
2021/12/18 10:09:07;;;;;;;8.67;7.50;;;12.80;99.90;;;;;;5065749;28;20824;-72
2021/12/18 10:11:34;;;;;;;9.33;8.20;;;12.60;99.90;;;;;;5072557;28;20469;-73
2021/12/18 10:14:02;;;;;;;9.93;7.00;;;12.50;99.90;;;;;;5070544;28;20430;-72
2021/12/18 10:16:29;;;;;;;9.80;6.83;;;12.40;99.90;;;;;;5073088;28;20836;-73
2021/12/18 10:18:57;;;;;;;9.13;6.70;;;12.30;99.90;;;;;;5070717;28;20423;-72
2021/12/18 10:21:28;;;;;;;8.17;6.93;;;12.30;99.90;;;;;;5072324;28;20419;-72
2021/12/18 10:23:56;;;;;;;10.00;7.20;;;12.20;99.90;;;;;;5071157;28;20414;-73
2021/12/18 10:26:30;;;;;;;9.77;7.23;;;12.20;99.90;;;;;;5070511;28;20511;-71
2021/12/18 10:28:56;;;;;;;7.13;6.20;;;12.20;99.90;;;;;;5065993;28;20530;-72
2021/12/18 10:31:40;;;;;;;8.73;6.73;;;12.10;99.90;;;;;;5073593;28;20570;-73
2021/12/18 10:34:25;;;;;;;9.30;7.10;;;12.10;99.90;;;;;;5070060;28;20264;-72
2021/12/18 10:37:10;;;;;;;9.80;7.33;;;12.00;99.90;;;;;;5072536;28;20415;-72
2021/12/18 10:39:38;;;;;;;10.23;7.03;;;12.00;99.90;;;;;;5054668;28;20424;-73
2021/12/18 10:42:27;;;;;;;9.33;8.27;;;11.90;99.90;;;;;;5035921;28;20475;-72
2021/12/18 10:45:12;;;;;;;12.27;8.67;;;11.90;99.90;;;;;;5053740;28;20967;-72
2021/12/18 10:48:27;;;;;;;10.90;8.63;;;11.90;99.90;;;;;;5072334;28;20918;-75
2021/12/18 10:50:53;;;;;;;11.33;8.50;;;11.90;99.90;;;;;;5012188;28;20511;-72
2021/12/18 10:53:29;;;;;;;11.30;8.20;;;11.80;99.90;;;;;;5072458;28;20447;-72
2021/12/18 10:55:57;;;;;;;10.73;8.17;;;11.80;99.90;;;;;;5072997;28;20411;-72
2021/12/18 10:58:32;;;;;;;10.17;8.23;;;11.80;99.90;;;;;;5052497;28;20884;-72
2021/12/18 11:01:06;;;;;;;13.50;9.17;;;11.70;99.90;;;;;;5053033;28;20532;-73
2021/12/18 11:03:40;;;;;;;15.10;10.53;;;11.70;99.90;;;;;;5051769;28;20960;-73
2021/12/18 11:06:10;;;;;;;12.43;9.10;;;11.70;99.90;;;;;;5053493;28;20400;-72
2021/12/18 11:09:06;;;;;;;12.10;8.70;;;11.60;99.90;;;;;;5057178;28;20472;-72
2021/12/18 11:14:11;;;;;;;12.67;8.90;;;11.50;99.90;;;;;;5073484;28;20431;-72
2021/12/18 11:16:39;;;;;;;10.70;8.60;;;11.50;99.90;;;;;;5072935;28;20516;-72
2021/12/18 11:19:13;;;;;;;52.67;39.70;;;11.60;99.90;;;;;;5073140;28;20764;-72
2021/12/18 11:21:42;;;;;;;22.53;16.03;;;11.50;99.90;;;;;;5071874;28;20429;-71
2021/12/18 11:24:09;;;;;;;31.80;23.70;;;11.50;99.90;;;;;;5072567;28;20472;-72
2021/12/18 11:26:41;;;;;;;15.63;11.57;;;11.60;99.90;;;;;;5072126;28;20455;-73
2021/12/18 11:29:21;;;;;;;10.83;8.60;;;11.60;99.90;;;;;;5071349;28;20416;-72
2021/12/18 11:31:47;;;;;;;12.63;8.47;;;11.60;99.90;;;;;;5070519;28;20465;-72
2021/12/18 11:34:15;;;;;;;10.33;8.33;;;11.60;99.90;;;;;;5071792;28;20750;-72
2021/12/18 11:36:43;;;;;;;7.80;6.73;;;11.70;99.90;;;;;;5067156;28;20431;-75
2021/12/18 11:39:10;;;;;;;10.00;7.33;;;11.70;99.90;;;;;;5056211;28;20541;-72
2021/12/18 11:41:38;;;;;;;9.03;6.70;;;11.70;99.90;;;;;;5068947;28;20515;-72
2021/12/18 11:44:27;;;;;;;9.63;7.70;;;11.70;99.90;;;;;;5071616;28;20419;-72
2021/12/18 11:46:53;;;;;;;8.40;7.00;;;11.70;99.90;;;;;;5032932;28;20971;-72
2021/12/18 11:49:21;;;;;;;9.37;7.87;;;11.70;99.90;;;;;;5071453;28;20514;-72
2021/12/18 11:52:02;;;;;;;10.37;7.80;;;11.60;99.90;;;;;;5068694;28;20461;-72
2021/12/18 11:54:52;;;;;;;12.43;7.93;;;11.60;99.90;;;;;;5070992;28;20418;-72
2021/12/18 11:57:50;;;;;;;645.70;436.90;;;11.50;99.90;;;;;;5060787;28;20844;-72
2021/12/18 12:00:15;;;;;;;29.50;18.90;;;11.50;99.90;;;;;;5036324;28;20942;-72
2021/12/18 12:02:50;;;;;;;11.50;7.90;;;11.50;99.90;;;;;;5051376;28;20467;-72
2021/12/18 12:05:18;;;;;;;15.50;9.20;;;11.50;99.90;;;;;;5053485;28;20236;-72
2021/12/18 12:07:44;;;;;;;11.13;7.70;;;11.50;99.90;;;;;;5051895;28;20413;-74
2021/12/18 12:10:49;;;;;;;11.77;9.03;;;11.50;99.90;;;;;;5052255;28;20892;-72
2021/12/18 12:13:06;;;;;;;14.60;10.20;;;11.50;99.90;;;;;;5050580;28;20785;-72
2021/12/18 12:15:32;;;;;;;14.70;10.17;;;11.50;99.90;;;;;;5034461;28;20430;-72
2021/12/18 12:18:02;;;;;;;13.80;10.17;;;11.50;99.90;;;;;;5051131;28;20187;-73
2021/12/18 12:20:51;;;;;;;12.37;8.80;;;11.50;99.90;;;;;;5052569;28;20643;-73
2021/12/18 12:23:16;;;;;;;11.50;8.80;;;11.50;99.90;;;;;;5056054;28;20431;-72
2021/12/18 12:25:49;;;;;;;11.33;8.40;;;11.60;99.90;;;;;;5072037;28;20413;-72
2021/12/18 12:28:26;;;;;;;18.10;12.40;;;11.60;99.90;;;;;;5072172;28;20810;-73
2021/12/18 12:31:05;;;;;;;15.80;10.40;;;11.60;99.90;;;;;;5069441;28;20462;-73
2021/12/18 12:33:35;;;;;;;11.17;8.10;;;11.60;99.90;;;;;;5072243;28;20393;-72
2021/12/18 12:36:15;;;;;;;13.63;8.40;;;11.60;99.90;;;;;;5051410;28;20835;-72
2021/12/18 12:39:03;;;;;;;13.43;9.27;;;11.60;99.90;;;;;;5052364;28;20405;-72
2021/12/18 12:41:50;;;;;;;13.90;8.73;;;11.60;99.90;;;;;;5068486;28;20521;-72
2021/12/18 12:44:30;;;;;;;8.30;7.43;;;11.60;99.90;;;;;;5072274;28;20479;-72
2021/12/18 12:47:18;;;;;;;8.90;6.97;;;11.60;99.90;;;;;;5056648;28;20922;-72
2021/12/18 12:49:46;;;;;;;7.70;6.77;;;11.60;99.90;;;;;;5055920;28;20420;-72
2021/12/18 12:52:14;;;;;;;8.60;6.70;;;11.60;99.90;;;;;;5064221;28;20463;-72
2021/12/18 12:54:57;;;;;;;6.33;5.33;;;11.60;99.90;;;;;;5068459;28;20422;-73
2021/12/18 12:57:23;;;;;;;7.80;6.20;;;11.60;99.90;;;;;;5070861;28;20429;-73
2021/12/18 12:59:58;;;;;;;7.67;6.27;;;11.60;99.90;;;;;;5052127;28;20429;-74
2021/12/18 13:02:24;;;;;;;9.17;6.60;;;11.60;99.90;;;;;;5075399;28;20192;-72
2021/12/18 13:04:59;;;;;;;6.60;5.50;;;11.60;99.90;;;;;;5074106;28;20446;-73
2021/12/18 13:07:25;;;;;;;7.97;6.60;;;11.50;99.90;;;;;;5074184;28;20400;-72
2021/12/18 13:09:51;;;;;;;7.60;6.07;;;11.60;99.90;;;;;;5073256;28;20482;-73
2021/12/18 13:12:16;;;;;;;6.60;5.77;;;11.60;99.90;;;;;;5074475;28;20714;-72
2021/12/18 13:14:44;;;;;;;154.07;89.77;;;11.60;99.90;;;;;;5074715;28;20276;-72
2021/12/18 13:17:36;;;;;;;123.93;73.83;;;11.60;99.90;;;;;;5073489;28;20186;-72
2021/12/18 13:20:05;;;;;;;14.70;9.90;;;11.60;99.90;;;;;;5071985;28;20426;-72
2021/12/18 13:22:33;;;;;;;7.43;6.50;;;11.60;99.90;;;;;;5074323;28;20533;-72
2021/12/18 13:25:12;;;;;;;7.17;5.57;;;11.70;99.90;;;;;;5073553;28;20426;-72
2021/12/18 13:27:40;;;;;;;8.30;6.23;;;11.70;99.90;;;;;;5074302;28;20451;-73
2021/12/18 13:30:19;;;;;;;9.10;6.97;;;11.60;99.90;;;;;;5072725;28;20426;-73